Time;durP1;ratioP1;P1;durP2;ratioP2;P2;SDS_P1;SDS_P2;PMS_P1;PMS_P2;Temp;Humidity;BMP_temperature;BMP_pressure;BME280_temperature;BME280_humidity;BME280_pressure;Samples;Min_cycle;Max_cycle;Signal;HPM_P1;HPM_P2
2024/04/25 00:00:59;;;;;;;10.02;4.72;;;;;;;4.32;81.21;99703.53;2723507;26;20498;-79
2024/04/25 00:02:13;;;;;;;6.22;5.30;;;;;;;4.32;81.41;99700.97;2709659;26;20008;-79
2024/04/25 00:03:26;;;;;;;5.00;3.95;;;;;;;4.30;80.87;99700.09;2721495;26;19995;-82
2024/04/25 00:04:39;;;;;;;4.13;3.25;;;;;;;4.30;80.88;99699.22;2719654;26;20054;-83
2024/04/25 00:05:52;;;;;;;4.50;4.10;;;;;;;4.29;80.76;99697.53;2722338;26;20007;-79
2024/04/25 00:07:05;;;;;;;7.10;4.88;;;;;;;4.30;81.36;99691.47;2723290;26;20451;-79
2024/04/25 00:08:19;;;;;;;8.05;4.30;;;;;;;4.29;81.36;99697.53;2722554;26;20421;-79
2024/04/25 00:09:32;;;;;;;3.88;3.47;;;;;;;4.28;80.83;99695.78;2710006;26;20499;-80
2024/04/25 00:10:54;;;;;;;4.38;3.40;;;;;;;4.28;81.25;99696.63;2725755;26;20053;-80
2024/04/25 00:12:08;;;;;;;4.13;3.65;;;;;;;4.28;81.31;99690.63;2721925;26;20003;-80
2024/04/25 00:13:27;;;;;;;5.28;4.78;;;;;;;4.28;81.03;99691.47;2711707;26;20006;-80
2024/04/25 00:14:41;;;;;;;5.07;3.60;;;;;;;4.29;80.85;99693.22;2724485;26;20007;-80
2024/04/25 00:15:55;;;;;;;6.57;4.43;;;;;;;4.28;81.37;99686.31;2722873;26;20053;-79
2024/04/25 00:17:08;;;;;;;5.30;4.15;;;;;;;4.27;81.09;99689.75;2714269;26;20007;-81
2024/04/25 00:18:22;;;;;;;5.03;4.43;;;;;;;4.28;80.92;99690.63;2710096;26;20657;-79
2024/04/25 00:19:35;;;;;;;5.53;4.32;;;;;;;4.27;81.24;99687.19;2709963;26;20468;-79
2024/04/25 00:20:49;;;;;;;7.80;4.97;;;;;;;4.27;80.79;99683.75;2723124;26;20003;-80
2024/04/25 00:22:05;;;;;;;6.53;4.95;;;;;;;4.27;80.80;99684.59;2724621;26;20012;-80
2024/04/25 00:23:18;;;;;;;6.38;3.30;;;;;;;4.28;81.33;99688.88;2721535;26;20053;-79
2024/04/25 00:24:31;;;;;;;5.75;4.57;;;;;;;4.28;81.05;99681.13;2722386;26;20019;-80
2024/04/25 00:25:45;;;;;;;9.18;3.67;;;;;;;4.28;81.34;99683.72;2722494;26;20004;-81
2024/04/25 00:26:58;;;;;;;4.55;3.80;;;;;;;4.28;81.13;99681.13;2709614;26;20410;-81
2024/04/25 00:28:14;;;;;;;4.38;3.50;;;;;;;4.30;81.44;99683.72;2728456;26;20059;-80
2024/04/25 00:29:27;;;;;;;8.93;4.53;;;;;;;4.30;81.35;99689.75;2722055;26;20000;-80
2024/04/25 00:30:40;;;;;;;6.43;3.65;;;;;;;4.31;80.96;99686.34;2725289;26;20663;-81
2024/04/25 00:31:53;;;;;;;8.10;3.92;;;;;;;4.31;81.12;99683.75;2722901;26;20499;-79
2024/04/25 00:33:06;;;;;;;7.15;4.05;;;;;;;4.33;80.76;99681.16;2710949;26;20043;-81
2024/04/25 00:34:20;;;;;;;3.58;3.28;;;;;;;4.33;81.29;99684.59;2727767;26;19999;-80
2024/04/25 00:35:33;;;;;;;4.75;4.00;;;;;;;4.34;81.06;99688.06;2724302;26;20542;-80
2024/04/25 00:36:46;;;;;;;5.68;4.43;;;;;;;4.34;80.98;99686.34;2722294;26;20000;-81
2024/04/25 00:38:00;;;;;;;5.60;4.28;;;;;;;4.34;81.46;99677.72;2712801;26;20011;-82
2024/04/25 00:39:13;;;;;;;5.53;3.85;;;;;;;4.33;80.99;99682.00;2722319;26;20008;-80
2024/04/25 00:40:26;;;;;;;4.68;3.90;;;;;;;4.33;81.45;99684.59;2725782;26;20010;-79
2024/04/25 00:41:39;;;;;;;4.53;3.80;;;;;;;4.32;81.02;99677.72;2723612;26;20455;-79
2024/04/25 00:42:53;;;;;;;7.25;4.57;;;;;;;4.32;81.35;99688.03;2723438;26;20777;-80
2024/04/25 00:44:07;;;;;;;6.38;4.55;;;;;;;4.31;81.00;99673.41;2723794;26;20007;-80
2024/04/25 00:45:20;;;;;;;6.03;3.72;;;;;;;4.32;81.17;99682.03;2711447;26;20075;-79
2024/04/25 00:46:33;;;;;;;4.55;4.13;;;;;;;4.32;80.92;99676.84;2711998;26;20023;-79
2024/04/25 00:47:46;;;;;;;8.02;5.00;;;;;;;4.31;80.93;99676.00;2724337;26;20003;-79
2024/04/25 00:49:00;;;;;;;4.82;4.32;;;;;;;4.33;80.99;99674.25;2723670;26;20046;-79
2024/04/25 00:50:14;;;;;;;8.20;4.85;;;;;;;4.34;81.33;99675.16;2722354;26;20011;-80
2024/04/25 00:51:28;;;;;;;9.20;6.85;;;;;;;4.34;81.25;99685.47;2723816;26;20000;-78
2024/04/25 00:52:41;;;;;;;4.35;3.95;;;;;;;4.34;81.60;99677.72;2705540;26;20003;-80
2024/04/25 00:53:54;;;;;;;6.53;4.90;;;;;;;4.32;81.20;99677.72;2704326;26;20016;-79
2024/04/25 00:55:07;;;;;;;8.15;4.15;;;;;;;4.32;81.36;99674.28;2712015;26;20448;-79
2024/04/25 00:56:22;;;;;;;5.53;4.05;;;;;;;4.33;81.19;99673.41;2724209;26;20808;-78
2024/04/25 00:57:37;;;;;;;6.95;4.43;;;;;;;4.32;81.17;99682.88;2723713;26;20018;-80
2024/04/25 00:58:50;;;;;;;4.70;4.30;;;;;;;4.34;81.64;99675.16;2713583;26;20352;-80
2024/04/25 01:00:05;;;;;;;4.70;4.30;;;;;;;4.32;81.43;99675.13;2694949;26;20005;-79
2024/04/25 01:01:21;;;;;;;5.38;3.80;;;;;;;4.30;81.26;99679.44;2702095;26;20007;-79
2024/04/25 01:02:36;;;;;;;6.25;4.82;;;;;;;4.31;81.32;99683.75;2713940;26;20465;-80
2024/04/25 01:03:51;;;;;;;9.55;4.82;;;;;;;4.32;81.87;99680.28;2713413;26;20057;-79
2024/04/25 01:05:05;;;;;;;9.82;5.40;;;;;;;4.32;81.65;99676.84;2713140;26;19995;-79
2024/04/25 01:06:21;;;;;;;9.30;5.30;;;;;;;4.32;81.37;99680.28;2724825;26;20010;-79
2024/04/25 01:07:34;;;;;;;7.28;4.65;;;;;;;4.32;81.83;99680.28;2725481;26;20072;-80
2024/04/25 01:08:47;;;;;;;7.60;5.45;;;;;;;4.31;81.38;99673.41;2724554;26;21048;-81
2024/04/25 01:10:00;;;;;;;6.45;5.20;;;;;;;4.31;81.98;99681.16;2724963;26;20015;-79
2024/04/25 01:11:14;;;;;;;7.90;5.03;;;;;;;4.31;81.34;99673.41;2713008;26;20468;-80
2024/04/25 01:12:27;;;;;;;9.43;6.40;;;;;;;4.30;81.89;99671.69;2712817;26;20550;-79
2024/04/25 01:13:41;;;;;;;5.85;4.47;;;;;;;4.30;81.80;99669.09;2724543;26;20000;-79
2024/04/25 01:14:55;;;;;;;9.68;5.53;;;;;;;4.30;81.47;99671.69;2725560;26;20380;-80
2024/04/25 01:16:11;;;;;;;7.97;4.90;;;;;;;4.29;81.99;99669.97;2725359;26;20014;-79
2024/04/25 01:17:25;;;;;;;8.55;5.32;;;;;;;4.29;82.04;99669.13;2723887;26;20045;-80
2024/04/25 01:18:38;;;;;;;7.68;5.10;;;;;;;4.27;81.61;99669.09;2695996;26;20046;-79
2024/04/25 01:19:51;;;;;;;5.75;4.63;;;;;;;4.29;81.54;99672.53;2707934;26;20012;-81
2024/04/25 01:21:05;;;;;;;5.15;4.72;;;;;;;4.28;81.48;99663.06;2720762;26;20010;-79
2024/04/25 01:22:19;;;;;;;7.75;5.30;;;;;;;4.30;82.06;99665.66;2724440;26;20119;-81
2024/04/25 01:23:35;;;;;;;5.97;4.70;;;;;;;4.30;82.14;99668.25;2714031;26;20015;-80
2024/04/25 01:24:48;;;;;;;5.47;4.32;;;;;;;4.30;82.10;99663.06;2713654;26;20445;-80
2024/04/25 01:26:02;;;;;;;10.30;4.50;;;;;;;4.31;82.11;99663.09;2717985;26;20031;-81
2024/04/25 01:27:16;;;;;;;8.27;5.07;;;;;;;4.29;82.10;99662.22;2713595;26;20054;-82
2024/04/25 01:28:30;;;;;;;5.85;4.93;;;;;;;4.29;82.35;99651.88;2712917;26;20061;-79
2024/04/25 01:29:43;;;;;;;6.70;5.28;;;;;;;4.29;82.20;99659.63;2696043;26;20035;-80
2024/04/25 01:30:57;;;;;;;10.30;5.57;;;;;;;4.29;82.25;99659.63;2695921;26;20000;-80
2024/04/25 01:32:10;;;;;;;7.72;5.22;;;;;;;4.28;82.11;99655.31;2709269;26;20014;-80
2024/04/25 01:33:25;;;;;;;7.13;5.15;;;;;;;4.30;82.17;99657.91;2708235;26;20481;-81
2024/04/25 01:34:39;;;;;;;6.28;5.30;;;;;;;4.29;82.08;99651.88;2713864;26;20036;-80
2024/04/25 01:35:52;;;;;;;6.85;4.95;;;;;;;4.28;82.46;99657.03;2726014;26;20018;-80
2024/04/25 01:37:05;;;;;;;8.60;6.78;;;;;;;4.28;82.68;99660.47;2730059;26;20012;-79
2024/04/25 01:38:19;;;;;;;8.60;5.70;;;;;;;4.26;82.42;99654.47;2730207;26;19999;-80
2024/04/25 01:39:32;;;;;;;10.25;5.22;;;;;;;4.25;82.72;99650.16;2729439;26;20111;-81
2024/04/25 01:40:45;;;;;;;8.90;5.05;;;;;;;4.25;82.53;99655.31;2729170;26;20004;-80
2024/04/25 01:41:58;;;;;;;10.80;5.78;;;;;;;4.24;82.62;99653.59;2727724;26;20036;-80
2024/04/25 01:43:11;;;;;;;8.43;4.63;;;;;;;4.23;82.63;99654.44;2714052;26;20076;-80
2024/04/25 01:44:25;;;;;;;6.75;5.50;;;;;;;4.21;82.16;99651.03;2700149;26;20058;-80
2024/04/25 01:45:38;;;;;;;10.73;7.70;;;;;;;4.21;82.15;99652.72;2725130;26;20019;-81
2024/04/25 01:46:54;;;;;;;6.20;5.32;;;;;;;4.20;82.82;99643.25;2726659;26;20039;-80
2024/04/25 01:48:07;;;;;;;8.07;5.22;;;;;;;4.19;82.42;99646.72;2727059;26;20456;-80
2024/04/25 01:49:21;;;;;;;9.90;5.78;;;;;;;4.20;82.76;99646.69;2726828;26;20028;-80
2024/04/25 01:50:34;;;;;;;7.43;5.43;;;;;;;4.17;82.53;99651.88;2725152;26;20015;-80
2024/04/25 01:51:47;;;;;;;11.77;6.20;;;;;;;4.17;82.77;99643.25;2713345;26;20009;-80
2024/04/25 01:53:00;;;;;;;10.20;5.97;;;;;;;4.17;82.53;99641.53;2724911;26;20003;-80
2024/04/25 01:54:14;;;;;;;9.93;5.70;;;;;;;4.18;82.72;99640.66;2706992;26;19996;-80
2024/04/25 01:55:27;;;;;;;10.50;6.03;;;;;;;4.17;82.69;99640.69;2713176;26;20016;-80
2024/04/25 01:56:40;;;;;;;13.55;6.15;;;;;;;4.17;83.08;99644.13;2726555;26;20357;-81
2024/04/25 01:57:53;;;;;;;7.22;4.97;;;;;;;4.18;82.87;99642.38;2726558;26;20723;-80
2024/04/25 01:59:06;;;;;;;8.18;5.85;;;;;;;4.17;83.34;99638.09;2724953;26;20325;-81
2024/04/25 02:00:20;;;;;;;7.25;5.97;;;;;;;4.18;83.26;99642.38;2725324;26;20000;-80
2024/04/25 02:01:33;;;;;;;8.18;5.55;;;;;;;4.17;83.39;99641.53;2723843;26;20015;-80
2024/04/25 02:02:46;;;;;;;13.02;6.60;;;;;;;4.14;82.82;99638.97;2724872;26;19999;-81
2024/04/25 02:03:59;;;;;;;11.68;6.43;;;;;;;4.12;82.94;99640.66;2726528;26;19999;-80
2024/04/25 02:05:13;;;;;;;7.35;5.50;;;;;;;4.13;83.08;99639.78;2725593;26;19999;-80
2024/04/25 02:06:26;;;;;;;6.07;5.47;;;;;;;4.10;83.15;99637.22;2726450;26;19995;-80
2024/04/25 02:07:39;;;;;;;14.85;6.20;;;;;;;4.11;82.92;99636.38;2727426;26;20018;-81
2024/04/25 02:08:54;;;;;;;7.35;5.38;;;;;;;4.12;83.33;99640.66;2726044;26;20774;-81
2024/04/25 02:10:07;;;;;;;7.88;5.22;;;;;;;4.12;83.04;99638.09;2725926;26;20007;-80
2024/04/25 02:11:21;;;;;;;7.65;6.35;;;;;;;4.13;83.73;99637.22;2726012;26;20004;-80
2024/04/25 02:12:35;;;;;;;9.05;5.95;;;;;;;4.15;83.69;99641.53;2726943;26;20003;-80
2024/04/25 02:13:48;;;;;;;9.90;6.07;;;;;;;4.16;83.72;99639.81;2725309;26;20552;-80
2024/04/25 02:15:02;;;;;;;12.68;6.82;;;;;;;4.18;83.74;99643.25;2713643;26;20070;-80
2024/04/25 02:16:15;;;;;;;9.40;6.55;;;;;;;4.15;83.28;99645.84;2725741;26;20004;-80
2024/04/25 02:17:28;;;;;;;9.30;6.35;;;;;;;4.14;83.83;99637.22;2724455;26;20015;-80
2024/04/25 02:18:41;;;;;;;6.53;5.93;;;;;;;4.14;83.27;99638.97;2725832;26;20007;-80
2024/04/25 02:19:55;;;;;;;7.45;5.57;;;;;;;4.14;83.58;99638.97;2724736;26;20017;-83
2024/04/25 02:25:44;;;;;;;7.32;5.07;;;;;;;4.03;83.18;99638.09;2713299;26;20006;-80
2024/04/25 02:26:57;;;;;;;10.18;6.22;;;;;;;4.01;83.15;99630.31;2725976;26;20011;-79
2024/04/25 02:28:11;;;;;;;11.00;5.75;;;;;;;4.00;83.34;99635.47;2726986;26;19995;-80
2024/04/25 02:29:24;;;;;;;10.75;6.38;;;;;;;4.01;83.83;99632.06;2724281;26;20045;-80
2024/04/25 02:30:37;;;;;;;10.82;6.75;;;;;;;4.01;83.41;99629.47;2725718;26;20000;-81
2024/04/25 02:31:50;;;;;;;5.88;5.35;;;;;;;4.01;83.57;99635.50;2725536;26;19999;-80
2024/04/25 02:33:04;;;;;;;12.70;5.85;;;;;;;4.02;83.61;99636.34;2714243;26;19995;-81
2024/04/25 02:34:17;;;;;;;8.98;6.05;;;;;;;4.02;83.94;99632.03;2714426;26;19996;-81
2024/04/25 02:35:30;;;;;;;6.32;5.20;;;;;;;4.03;83.61;99632.94;2714925;26;20084;-80
2024/04/25 02:36:43;;;;;;;7.72;6.55;;;;;;;4.03;83.99;99628.63;2726175;26;20004;-82
2024/04/25 02:37:57;;;;;;;8.40;6.20;;;;;;;4.03;83.94;99632.94;2725634;26;19991;-81
2024/04/25 02:39:10;;;;;;;7.63;6.78;;;;;;;4.03;84.13;99632.94;2708249;26;20000;-81
2024/04/25 02:40:24;;;;;;;11.38;6.10;;;;;;;4.02;83.64;99633.78;2695018;26;20011;-80
2024/04/25 02:41:37;;;;;;;9.95;6.70;;;;;;;4.00;83.90;99631.19;2689182;26;19993;-80
2024/04/25 02:42:50;;;;;;;7.93;5.78;;;;;;;4.01;84.07;99638.06;2726634;26;20005;-81
2024/04/25 02:44:04;;;;;;;9.57;6.65;;;;;;;4.00;83.46;99632.91;2726538;26;19999;-81
2024/04/25 02:45:17;;;;;;;7.82;6.25;;;;;;;4.00;83.63;99625.16;2714146;26;19999;-80
2024/04/25 02:46:30;;;;;;;7.53;6.28;;;;;;;4.00;83.46;99638.06;2726022;26;20000;-81
2024/04/25 02:47:43;;;;;;;9.70;7.97;;;;;;;4.01;83.94;99632.06;2725964;26;20023;-81
2024/04/25 02:48:58;;;;;;;8.27;6.57;;;;;;;4.00;83.68;99633.78;2713535;26;20492;-80
2024/04/25 02:50:11;;;;;;;11.68;6.95;;;;;;;4.02;83.63;99633.78;2725472;26;20006;-80
2024/04/25 02:51:25;;;;;;;12.77;6.15;;;;;;;4.03;83.70;99638.09;2725379;26;20006;-81
2024/04/25 02:52:38;;;;;;;8.85;6.20;;;;;;;4.02;83.81;99628.59;2723962;26;20000;-80
2024/04/25 02:53:51;;;;;;;8.85;6.38;;;;;;;4.03;83.58;99633.78;2713125;26;20011;-80
2024/04/25 02:55:05;;;;;;;11.48;6.75;;;;;;;4.04;83.85;99635.50;2724357;26;19999;-81
2024/04/25 02:56:18;;;;;;;11.27;6.53;;;;;;;4.06;83.85;99638.09;2724748;26;20045;-80
2024/04/25 02:57:32;;;;;;;9.77;6.43;;;;;;;4.06;83.56;99638.09;2726961;26;20010;-81
2024/04/25 02:58:45;;;;;;;11.05;7.88;;;;;;;4.07;83.93;99635.50;2713156;26;19999;-80
2024/04/25 02:59:58;;;;;;;7.93;5.30;;;;;;;4.07;83.57;99637.22;2725046;26;19999;-80
2024/04/25 03:01:11;;;;;;;9.00;6.22;;;;;;;4.08;83.94;99641.50;2724277;26;20344;-80
2024/04/25 03:02:25;;;;;;;8.70;6.85;;;;;;;4.07;83.64;99634.63;2725946;26;20003;-80
2024/04/25 03:03:39;;;;;;;12.13;7.05;;;;;;;4.09;83.94;99638.09;2726630;26;20003;-80
2024/04/25 03:04:52;;;;;;;7.55;6.78;;;;;;;4.09;83.73;99643.25;2725989;26;20004;-81
2024/04/25 03:06:05;;;;;;;9.35;6.38;;;;;;;4.11;83.98;99641.53;2725005;26;20561;-80
2024/04/25 03:07:19;;;;;;;8.88;6.10;;;;;;;4.10;83.89;99642.38;2714019;26;20457;-80
2024/04/25 03:08:32;;;;;;;9.73;7.10;;;;;;;4.12;83.54;99638.09;2724731;26;20049;-79
2024/04/25 03:09:45;;;;;;;7.15;6.13;;;;;;;4.11;84.07;99631.22;2726044;26;20110;-80
2024/04/25 03:11:07;;;;;;;10.02;7.65;;;;;;;4.11;83.79;99631.22;2725514;26;20071;-80
2024/04/25 03:12:21;;;;;;;12.20;6.55;;;;;;;4.11;83.60;99637.22;2724621;26;20226;-80
2024/04/25 03:13:34;;;;;;;7.30;5.50;;;;;;;4.11;83.82;99631.22;2711881;26;20046;-81
2024/04/25 03:14:47;;;;;;;7.88;6.10;;;;;;;4.12;83.60;99636.34;2724677;26;20020;-80
2024/04/25 03:16:02;;;;;;;8.52;5.88;;;;;;;4.14;84.00;99631.22;2726140;26;20071;-80
2024/04/25 03:17:15;;;;;;;7.65;6.90;;;;;;;4.13;83.86;99624.31;2725896;26;20203;-80
2024/04/25 03:18:29;;;;;;;7.95;6.22;;;;;;;4.14;83.66;99631.22;2725919;26;19999;-80
2024/04/25 03:19:42;;;;;;;9.00;7.93;;;;;;;4.14;83.98;99621.72;2725111;26;20003;-82
2024/04/25 03:21:05;;;;;;;10.32;6.50;;;;;;;4.14;83.97;99632.06;2723502;26;20035;-80
2024/04/25 03:22:18;;;;;;;10.27;6.68;;;;;;;4.13;84.08;99626.88;2724556;26;20337;-81
2024/04/25 03:23:36;;;;;;;8.57;7.35;;;;;;;4.13;84.14;99629.47;2723910;26;20054;-80
2024/04/25 03:24:49;;;;;;;8.88;6.72;;;;;;;4.10;83.92;99622.56;2724433;26;20364;-80
2024/04/25 03:26:06;;;;;;;8.77;6.95;;;;;;;4.11;83.53;99618.31;2724191;26;20014;-80
2024/04/25 03:27:19;;;;;;;12.15;7.68;;;;;;;4.11;83.56;99621.75;2714248;26;20014;-80
2024/04/25 03:28:32;;;;;;;10.02;6.85;;;;;;;4.12;84.08;99628.63;2725323;26;19999;-82
2024/04/25 03:29:46;;;;;;;15.90;8.02;;;;;;;4.11;83.75;99614.00;2725496;26;20003;-80
2024/04/25 03:30:59;;;;;;;9.45;7.20;;;;;;;4.11;83.53;99624.31;2725590;26;20011;-80
2024/04/25 03:32:12;;;;;;;10.05;6.63;;;;;;;4.11;84.03;99616.56;2726663;26;20010;-80
2024/04/25 03:33:26;;;;;;;12.32;6.82;;;;;;;4.11;84.04;99610.56;2724400;26;20010;-81
2024/04/25 03:34:39;;;;;;;10.73;7.57;;;;;;;4.12;83.58;99617.44;2713007;26;20000;-82
2024/04/25 03:35:52;;;;;;;8.48;7.20;;;;;;;4.12;83.42;99617.44;2725069;26;20526;-81
2024/04/25 03:37:05;;;;;;;14.23;7.50;;;;;;;4.11;83.38;99619.16;2725899;26;20068;-80
2024/04/25 03:38:19;;;;;;;10.50;7.43;;;;;;;4.11;83.70;99618.31;2726305;26;20004;-80
2024/04/25 03:39:32;;;;;;;8.15;7.13;;;;;;;4.11;83.81;99619.16;2724812;26;20012;-80
2024/04/25 03:40:45;;;;;;;9.45;7.05;;;;;;;4.12;83.62;99627.75;2724633;26;20014;-78
2024/04/25 03:41:59;;;;;;;11.45;6.82;;;;;;;4.11;83.50;99623.47;2724054;26;20007;-78
2024/04/25 03:43:12;;;;;;;10.77;7.90;;;;;;;4.12;83.51;99622.59;2724266;26;20469;-78
2024/04/25 03:44:25;;;;;;;8.93;6.65;;;;;;;4.13;83.97;99621.72;2722862;26;20332;-78
2024/04/25 03:45:38;;;;;;;10.40;6.03;;;;;;;4.13;83.50;99626.88;2723938;26;20471;-79
2024/04/25 03:46:52;;;;;;;12.18;7.80;;;;;;;4.14;83.51;99626.03;2725853;26;20654;-79
2024/04/25 03:48:05;;;;;;;9.13;8.23;;;;;;;4.16;83.56;99624.34;2725781;26;20599;-78
2024/04/25 03:49:18;;;;;;;10.90;8.15;;;;;;;4.14;83.87;99626.91;2726102;26;20004;-78
2024/04/25 03:50:32;;;;;;;15.95;8.43;;;;;;;4.14;83.74;99626.03;2724196;26;20084;-78
2024/04/25 03:51:46;;;;;;;9.50;8.43;;;;;;;4.15;84.01;99631.19;2713587;26;20016;-78
2024/04/25 03:52:59;;;;;;;11.70;8.38;;;;;;;4.17;83.75;99628.63;2724065;26;20483;-78
2024/04/25 03:54:13;;;;;;;11.18;7.72;;;;;;;4.18;84.00;99632.91;2724142;26;20361;-78
2024/04/25 03:55:26;;;;;;;11.63;8.52;;;;;;;4.20;83.82;99630.34;2725402;26;19999;-78
2024/04/25 03:56:39;;;;;;;8.90;7.50;;;;;;;4.19;83.43;99634.66;2725343;26;20352;-78
2024/04/25 03:57:53;;;;;;;9.48;7.13;;;;;;;4.20;83.55;99635.50;2725814;26;20015;-78
2024/04/25 03:59:06;;;;;;;7.93;7.07;;;;;;;4.19;83.50;99629.50;2725857;26;19999;-78
2024/04/25 04:00:19;;;;;;;11.80;8.35;;;;;;;4.21;83.34;99640.69;2724655;26;20031;-78
2024/04/25 04:01:32;;;;;;;10.82;7.70;;;;;;;4.22;83.33;99633.81;2724675;26;19999;-79
2024/04/25 04:02:46;;;;;;;13.00;8.48;;;;;;;4.21;83.29;99637.22;2717487;26;20004;-78
2024/04/25 04:03:59;;;;;;;10.13;7.43;;;;;;;4.21;83.30;99638.09;2725685;26;20086;-78
2024/04/25 04:05:14;;;;;;;11.43;8.60;;;;;;;4.22;83.83;99639.81;2724050;26;20014;-78
2024/04/25 04:06:27;;;;;;;11.98;8.70;;;;;;;4.23;83.68;99638.09;2724846;26;20333;-79
2024/04/25 04:07:41;;;;;;;12.45;7.50;;;;;;;4.23;83.75;99628.63;2725919;26;20019;-79
2024/04/25 04:08:54;;;;;;;8.60;7.65;;;;;;;4.23;83.68;99636.38;2725269;26;20032;-79
2024/04/25 04:10:08;;;;;;;9.77;7.70;;;;;;;4.22;83.76;99632.06;2725930;26;20394;-78
2024/04/25 04:11:21;;;;;;;13.32;7.15;;;;;;;4.22;83.71;99631.22;2725094;26;20484;-79
2024/04/25 04:12:35;;;;;;;12.43;7.85;;;;;;;4.22;83.27;99636.38;2725111;26;20003;-79
2024/04/25 04:13:48;;;;;;;10.60;7.90;;;;;;;4.23;83.75;99638.94;2725990;26;20019;-78
2024/04/25 04:15:01;;;;;;;11.80;9.52;;;;;;;4.24;83.65;99635.53;2725745;26;19999;-79
2024/04/25 04:16:14;;;;;;;15.13;10.48;;;;;;;4.25;83.61;99639.81;2725979;26;20004;-78
2024/04/25 04:17:29;;;;;;;10.15;8.52;;;;;;;4.26;83.29;99632.91;2725443;26;19999;-79
2024/04/25 04:18:43;;;;;;;9.73;7.50;;;;;;;4.26;83.15;99631.22;2725920;26;20011;-79
2024/04/25 04:19:56;;;;;;;10.50;7.70;;;;;;;4.26;83.38;99640.66;2724943;26;20337;-78
2024/04/25 04:21:09;;;;;;;11.35;8.75;;;;;;;4.25;83.28;99634.66;2724431;26;20547;-78
2024/04/25 04:22:22;;;;;;;18.10;11.13;;;;;;;4.26;83.73;99638.09;2724999;26;20000;-78
2024/04/25 04:23:36;;;;;;;9.77;8.15;;;;;;;4.28;83.47;99634.66;2724708;26;20004;-78
2024/04/25 04:24:49;;;;;;;23.95;9.10;;;;;;;4.27;83.82;99638.09;2724448;26;20368;-78
2024/04/25 04:26:02;;;;;;;9.10;8.20;;;;;;;4.26;83.81;99636.41;2713159;26;20460;-78
2024/04/25 04:27:15;;;;;;;8.00;7.20;;;;;;;4.27;83.38;99635.53;2724879;26;20468;-79
2024/04/25 04:28:29;;;;;;;10.52;8.48;;;;;;;4.27;83.08;99632.94;2724188;26;20665;-78
2024/04/25 04:29:42;;;;;;;12.93;8.05;;;;;;;4.25;83.31;99634.66;2725265;26;20449;-78
2024/04/25 04:30:55;;;;;;;12.18;7.55;;;;;;;4.25;83.55;99626.91;2725669;26;20003;-78
2024/04/25 04:32:08;;;;;;;11.63;7.60;;;;;;;4.25;83.54;99631.22;2724458;26;19999;-78
2024/04/25 04:33:22;;;;;;;15.15;7.85;;;;;;;4.22;83.53;99624.31;2724802;26;19996;-79
2024/04/25 04:34:35;;;;;;;8.82;7.90;;;;;;;4.21;83.61;99627.78;2725723;26;20526;-78
2024/04/25 04:35:48;;;;;;;14.90;7.85;;;;;;;4.21;83.03;99627.78;2725495;26;20028;-79
2024/04/25 04:37:01;;;;;;;14.30;7.65;;;;;;;4.20;83.52;99633.78;2725242;26;20000;-78
2024/04/25 04:38:15;;;;;;;10.73;7.80;;;;;;;4.22;83.16;99633.81;2725827;26;20003;-78
2024/04/25 04:39:28;;;;;;;9.18;7.38;;;;;;;4.21;83.67;99625.19;2725939;26;20032;-79
2024/04/25 04:40:42;;;;;;;14.25;9.88;;;;;;;4.20;83.59;99633.78;2724422;26;19999;-79
2024/04/25 04:41:55;;;;;;;8.43;6.95;;;;;;;4.20;83.13;99638.94;2712974;26;20043;-78
2024/04/25 04:43:08;;;;;;;11.43;6.38;;;;;;;4.20;83.24;99633.78;2725527;26;20012;-79
2024/04/25 04:44:21;;;;;;;11.85;8.48;;;;;;;4.19;83.27;99633.81;2724683;26;20000;-79
2024/04/25 04:45:34;;;;;;;11.25;7.95;;;;;;;4.21;83.18;99638.09;2712598;26;20014;-78
2024/04/25 04:46:48;;;;;;;12.27;8.18;;;;;;;4.21;83.42;99632.06;2712421;26;20003;-78
2024/04/25 04:48:01;;;;;;;14.15;7.85;;;;;;;4.21;83.04;99640.69;2725164;26;19996;-78
2024/04/25 04:49:14;;;;;;;10.13;8.82;;;;;;;4.20;83.45;99631.19;2724019;26;20004;-80
2024/04/25 04:50:27;;;;;;;8.52;7.75;;;;;;;4.21;83.28;99640.69;2724446;26;19999;-79
2024/04/25 04:51:41;;;;;;;9.73;8.35;;;;;;;4.21;83.15;99640.69;2724416;26;20007;-79
2024/04/25 04:52:54;;;;;;;14.20;8.48;;;;;;;4.22;83.52;99634.66;2712539;26;19999;-80
2024/04/25 04:54:07;;;;;;;12.77;7.65;;;;;;;4.23;83.55;99638.09;2713127;26;20007;-79
2024/04/25 04:55:20;;;;;;;14.95;7.68;;;;;;;4.24;83.44;99637.25;2713294;26;20018;-79
2024/04/25 04:56:34;;;;;;;11.35;6.97;;;;;;;4.25;82.94;99638.97;2723337;26;20004;-78
2024/04/25 04:57:47;;;;;;;10.60;7.72;;;;;;;4.24;82.85;99640.69;2723657;26;20032;-78
2024/04/25 04:59:00;;;;;;;9.70;7.38;;;;;;;4.25;82.95;99639.81;2724333;26;20106;-79
2024/04/25 05:00:14;;;;;;;10.85;7.93;;;;;;;4.27;83.21;99647.59;2725138;26;20015;-79
2024/04/25 05:01:27;;;;;;;11.35;6.95;;;;;;;4.27;82.83;99653.59;2724687;26;20000;-79
2024/04/25 05:02:40;;;;;;;11.82;7.28;;;;;;;4.28;83.35;99650.16;2726031;26;20003;-78
2024/04/25 05:03:54;;;;;;;13.05;7.00;;;;;;;4.24;82.75;99638.09;2724123;26;20026;-78
2024/04/25 05:05:07;;;;;;;6.47;5.80;;;;;;;4.25;83.28;99650.16;2724073;26;20010;-79
2024/04/25 05:06:20;;;;;;;11.32;8.77;;;;;;;4.26;83.10;99651.00;2724672;26;20006;-79
2024/04/25 05:07:34;;;;;;;13.35;7.50;;;;;;;4.27;83.06;99651.00;2724599;26;20004;-79
2024/04/25 05:08:47;;;;;;;17.02;8.48;;;;;;;4.28;82.76;99647.56;2725197;26;20093;-78
2024/04/25 05:10:00;;;;;;;13.40;7.45;;;;;;;4.31;82.87;99649.28;2724502;26;20004;-78
2024/04/25 05:11:14;;;;;;;12.75;7.50;;;;;;;4.32;82.84;99648.44;2725185;26;20446;-78
2024/04/25 05:12:27;;;;;;;13.55;7.90;;;;;;;4.34;82.77;99655.34;2725319;26;20403;-78
2024/04/25 05:13:40;;;;;;;14.55;11.10;;;;;;;4.36;83.04;99655.31;2725072;26;20007;-79
2024/04/25 05:14:53;;;;;;;15.48;9.27;;;;;;;4.38;83.05;99651.88;2725583;26;20000;-78
2024/04/25 05:16:08;;;;;;;13.52;8.93;;;;;;;4.40;82.83;99654.47;2725580;26;20343;-79
2024/04/25 05:17:21;;;;;;;11.32;6.85;;;;;;;4.41;82.90;99658.75;2724161;26;20468;-79
2024/04/25 05:18:35;;;;;;;9.68;5.90;;;;;;;4.43;83.08;99661.34;2695081;26;20000;-78
2024/04/25 05:19:48;;;;;;;16.65;9.40;;;;;;;4.43;82.96;99653.63;2711311;26;20015;-79
2024/04/25 05:21:01;;;;;;;10.23;7.15;;;;;;;4.42;82.62;99659.66;2724516;26;20018;-79
2024/04/25 05:22:14;;;;;;;15.07;8.23;;;;;;;4.54;82.92;99667.38;2723867;26;19999;-79
2024/04/25 05:23:28;;;;;;;13.52;7.75;;;;;;;4.59;82.90;99665.66;2724422;26;20193;-78
2024/04/25 05:24:41;;;;;;;8.35;7.35;;;;;;;4.63;83.04;99661.38;2725079;26;20018;-79
2024/04/25 05:25:55;;;;;;;11.13;6.93;;;;;;;4.62;83.01;99664.78;2725689;26;20000;-79
2024/04/25 05:27:08;;;;;;;10.60;7.43;;;;;;;4.54;82.70;99672.53;2724369;26;20066;-78
2024/04/25 05:28:22;;;;;;;14.65;10.35;;;;;;;4.49;82.22;99670.00;2724210;26;20361;-78
2024/04/25 05:29:35;;;;;;;12.48;6.75;;;;;;;4.45;82.17;99667.41;2724338;26;20456;-78
2024/04/25 05:30:48;;;;;;;13.18;9.43;;;;;;;4.43;82.35;99664.81;2725367;26;20011;-78
2024/04/25 05:32:02;;;;;;;12.27;8.25;;;;;;;4.40;82.65;99667.38;2724474;26;20014;-78
2024/04/25 05:33:15;;;;;;;11.10;8.18;;;;;;;4.38;82.42;99662.22;2723912;26;20003;-78
2024/04/25 05:34:28;;;;;;;14.98;8.10;;;;;;;4.36;83.05;99663.94;2725136;26;20072;-78
2024/04/25 05:35:42;;;;;;;12.95;9.45;;;;;;;4.35;82.66;99658.78;2723641;26;20008;-78
2024/04/25 05:36:55;;;;;;;10.90;8.50;;;;;;;4.35;82.70;99663.94;2711873;26;20003;-79
2024/04/25 05:38:08;;;;;;;14.75;10.20;;;;;;;4.34;82.94;99660.50;2724637;26;19999;-78
2024/04/25 05:39:21;;;;;;;15.38;8.05;;;;;;;4.31;82.74;99662.19;2724419;26;20010;-79
2024/04/25 05:40:35;;;;;;;18.65;7.97;;;;;;;4.31;82.92;99667.38;2711630;26;20009;-79
2024/04/25 05:41:48;;;;;;;11.73;7.43;;;;;;;4.29;82.96;99662.22;2723999;26;19995;-78
2024/04/25 05:43:01;;;;;;;11.85;8.05;;;;;;;4.27;83.08;99669.09;2724986;26;20003;-78
2024/04/25 05:44:14;;;;;;;9.70;7.88;;;;;;;4.29;82.90;99661.38;2724946;26;20015;-79
2024/04/25 05:45:28;;;;;;;10.98;8.02;;;;;;;4.30;83.45;99658.75;2724600;26;20000;-78
2024/04/25 05:46:41;;;;;;;15.65;8.57;;;;;;;4.31;83.51;99654.44;2724162;26;20015;-79
2024/04/25 05:47:54;;;;;;;16.77;8.55;;;;;;;4.35;83.35;99669.09;2724330;26;19999;-78
2024/04/25 05:49:07;;;;;;;9.18;8.20;;;;;;;4.33;83.74;99653.59;2724346;26;20018;-78
2024/04/25 05:50:21;;;;;;;15.27;8.73;;;;;;;4.36;83.76;99668.22;2724523;26;20320;-78
2024/04/25 05:51:34;;;;;;;17.38;8.60;;;;;;;4.38;83.63;99672.53;2724638;26;20105;-78
2024/04/25 05:52:47;;;;;;;21.77;9.60;;;;;;;4.40;83.59;99654.47;2724459;26;20329;-79
2024/04/25 05:54:01;;;;;;;15.68;8.98;;;;;;;4.44;83.95;99666.53;2725202;26;20348;-79